sensor_id;sensor_type;location;lat;lon;timestamp;pressure;altitude;pressure_sealevel;temperature;humidity
18201;BME280;9226;47.858;9.594;2023-03-25T00:01:07;94800.09;;;8.53;81.59
18201;BME280;9226;47.858;9.594;2023-03-25T00:03:39;94791.41;;;8.62;80.90
18201;BME280;9226;47.858;9.594;2023-03-25T00:06:09;94788.78;;;8.50;81.26
18201;BME280;9226;47.858;9.594;2023-03-25T00:08:35;94789.41;;;8.54;81.08
18201;BME280;9226;47.858;9.594;2023-03-25T00:11:02;94788.81;;;8.39;80.93
18201;BME280;9226;47.858;9.594;2023-03-25T00:13:29;94787.72;;;8.53;80.66
18201;BME280;9226;47.858;9.594;2023-03-25T00:15:56;94787.66;;;8.43;80.60
18201;BME280;9226;47.858;9.594;2023-03-25T00:18:26;94787.81;;;8.30;80.72
18201;BME280;9226;47.858;9.594;2023-03-25T00:20:58;94778.75;;;8.33;80.66
18201;BME280;9226;47.858;9.594;2023-03-25T00:23:25;94783.78;;;8.36;80.15
18201;BME280;9226;47.858;9.594;2023-03-25T00:25:51;94770.06;;;8.42;80.20
18201;BME280;9226;47.858;9.594;2023-03-25T00:28:16;94773.81;;;8.40;80.26
18201;BME280;9226;47.858;9.594;2023-03-25T00:30:43;94770.25;;;8.29;80.35
18201;BME280;9226;47.858;9.594;2023-03-25T00:33:10;94768.50;;;8.19;80.48
18201;BME280;9226;47.858;9.594;2023-03-25T00:35:36;94772.44;;;8.24;80.34
18201;BME280;9226;47.858;9.594;2023-03-25T00:38:04;94754.72;;;8.36;80.55
18201;BME280;9226;47.858;9.594;2023-03-25T00:40:32;94753.88;;;8.36;79.73
18201;BME280;9226;47.858;9.594;2023-03-25T00:43:01;94735.78;;;8.31;79.25
18201;BME280;9226;47.858;9.594;2023-03-25T00:45:28;94745.78;;;8.27;78.45
18201;BME280;9226;47.858;9.594;2023-03-25T00:47:54;94743.25;;;8.26;77.86
18201;BME280;9226;47.858;9.594;2023-03-25T00:50:19;94751.38;;;8.34;77.95
18201;BME280;9226;47.858;9.594;2023-03-25T00:52:49;94758.25;;;8.25;77.66
18201;BME280;9226;47.858;9.594;2023-03-25T00:55:15;94762.38;;;8.18;76.76
18201;BME280;9226;47.858;9.594;2023-03-25T00:57:41;94760.50;;;8.30;77.46
18201;BME280;9226;47.858;9.594;2023-03-25T01:00:10;94761.88;;;8.24;77.02
18201;BME280;9226;47.858;9.594;2023-03-25T01:02:36;94765.22;;;8.26;76.64
18201;BME280;9226;47.858;9.594;2023-03-25T01:05:05;94760.50;;;8.09;76.65
18201;BME280;9226;47.858;9.594;2023-03-25T01:07:31;94764.59;;;8.02;77.00
18201;BME280;9226;47.858;9.594;2023-03-25T01:10:00;94757.81;;;7.88;76.76
18201;BME280;9226;47.858;9.594;2023-03-25T01:12:26;94766.69;;;7.87;76.46
18201;BME280;9226;47.858;9.594;2023-03-25T01:14:52;94751.09;;;7.84;76.64
18201;BME280;9226;47.858;9.594;2023-03-25T01:17:18;94766.81;;;7.85;76.93
18201;BME280;9226;47.858;9.594;2023-03-25T01:19:43;94765.56;;;8.01;76.94
18201;BME280;9226;47.858;9.594;2023-03-25T01:22:09;94764.25;;;7.95;77.23
18201;BME280;9226;47.858;9.594;2023-03-25T01:24:35;94772.19;;;7.95;77.61
18201;BME280;9226;47.858;9.594;2023-03-25T01:27:00;94771.69;;;8.01;77.10
18201;BME280;9226;47.858;9.594;2023-03-25T01:29:26;94763.81;;;7.90;77.12
18201;BME280;9226;47.858;9.594;2023-03-25T01:31:51;94769.28;;;7.98;76.91
18201;BME280;9226;47.858;9.594;2023-03-25T01:34:18;94764.75;;;8.00;76.33
18201;BME280;9226;47.858;9.594;2023-03-25T01:36:43;94762.09;;;8.00;76.56
18201;BME280;9226;47.858;9.594;2023-03-25T01:39:14;94746.38;;;7.99;76.17
18201;BME280;9226;47.858;9.594;2023-03-25T01:41:44;94740.50;;;7.95;76.58
18201;BME280;9226;47.858;9.594;2023-03-25T01:46:38;94752.19;;;8.13;76.38
18201;BME280;9226;47.858;9.594;2023-03-25T01:49:06;94740.78;;;8.13;75.84
18201;BME280;9226;47.858;9.594;2023-03-25T01:51:35;94735.81;;;7.99;75.88
18201;BME280;9226;47.858;9.594;2023-03-25T01:54:03;94730.25;;;8.02;75.78
18201;BME280;9226;47.858;9.594;2023-03-25T01:56:32;94731.69;;;8.06;75.89
18201;BME280;9226;47.858;9.594;2023-03-25T01:59:00;94736.91;;;7.96;76.35
18201;BME280;9226;47.858;9.594;2023-03-25T02:01:27;94741.44;;;8.05;76.05
18201;BME280;9226;47.858;9.594;2023-03-25T02:03:54;94758.84;;;7.96;76.67
18201;BME280;9226;47.858;9.594;2023-03-25T02:06:31;94758.53;;;7.90;76.76
18201;BME280;9226;47.858;9.594;2023-03-25T02:08:59;94769.09;;;7.90;76.82
18201;BME280;9226;47.858;9.594;2023-03-25T02:11:26;94758.69;;;7.77;76.74
18201;BME280;9226;47.858;9.594;2023-03-25T02:13:55;94771.84;;;7.88;76.69
18201;BME280;9226;47.858;9.594;2023-03-25T02:16:29;94776.22;;;7.78;77.05
18201;BME280;9226;47.858;9.594;2023-03-25T02:25:34;94775.59;;;7.74;76.42
18201;BME280;9226;47.858;9.594;2023-03-25T02:28:20;94772.25;;;7.72;76.64
18201;BME280;9226;47.858;9.594;2023-03-25T02:41:59;94770.00;;;7.68;76.30
18201;BME280;9226;47.858;9.594;2023-03-25T02:44:55;94780.69;;;7.55;76.29
18201;BME280;9226;47.858;9.594;2023-03-25T02:47:26;94789.91;;;7.60;76.08
18201;BME280;9226;47.858;9.594;2023-03-25T02:50:00;94776.50;;;7.52;75.72
18201;BME280;9226;47.858;9.594;2023-03-25T02:52:33;94778.31;;;7.52;75.73
18201;BME280;9226;47.858;9.594;2023-03-25T02:55:03;94785.75;;;7.58;75.61
18201;BME280;9226;47.858;9.594;2023-03-25T02:57:37;94772.66;;;7.56;75.19
18201;BME280;9226;47.858;9.594;2023-03-25T03:00:06;94769.63;;;7.72;75.24
18201;BME280;9226;47.858;9.594;2023-03-25T03:02:35;94769.38;;;7.75;74.28
18201;BME280;9226;47.858;9.594;2023-03-25T03:05:01;94776.09;;;7.68;74.75
18201;BME280;9226;47.858;9.594;2023-03-25T03:07:29;94785.69;;;7.81;75.08
18201;BME280;9226;47.858;9.594;2023-03-25T03:15:31;94780.34;;;7.92;74.19
18201;BME280;9226;47.858;9.594;2023-03-25T03:21:17;94791.75;;;8.04;73.93
18201;BME280;9226;47.858;9.594;2023-03-25T03:24:01;94783.69;;;8.05;73.75
18201;BME280;9226;47.858;9.594;2023-03-25T03:26:56;94792.25;;;7.97;74.14
18201;BME280;9226;47.858;9.594;2023-03-25T03:29:35;94779.06;;;7.86;73.88
18201;BME280;9226;47.858;9.594;2023-03-25T03:32:32;94790.22;;;7.90;73.77
18201;BME280;9226;47.858;9.594;2023-03-25T03:35:05;94780.34;;;7.92;73.83
18201;BME280;9226;47.858;9.594;2023-03-25T03:37:37;94779.41;;;7.93;73.98
18201;BME280;9226;47.858;9.594;2023-03-25T03:40:07;94778.91;;;7.99;73.70
18201;BME280;9226;47.858;9.594;2023-03-25T03:42:41;94782.72;;;8.06;73.61
18201;BME280;9226;47.858;9.594;2023-03-25T03:45:13;94791.63;;;8.05;73.07
18201;BME280;9226;47.858;9.594;2023-03-25T03:47:45;94800.50;;;8.04;73.37
18201;BME280;9226;47.858;9.594;2023-03-25T03:50:23;94812.97;;;8.13;73.58
18201;BME280;9226;47.858;9.594;2023-03-25T03:53:11;94845.09;;;8.30;73.30
18201;BME280;9226;47.858;9.594;2023-03-25T03:55:49;94872.63;;;8.27;74.74
18201;BME280;9226;47.858;9.594;2023-03-25T03:58:23;94883.56;;;8.23;76.90
18201;BME280;9226;47.858;9.594;2023-03-25T04:03:45;94817.28;;;8.14;77.82
18201;BME280;9226;47.858;9.594;2023-03-25T04:06:37;94805.59;;;7.85;77.66
18201;BME280;9226;47.858;9.594;2023-03-25T04:09:14;94833.44;;;7.89;77.58
18201;BME280;9226;47.858;9.594;2023-03-25T04:12:02;94850.50;;;7.85;77.41
18201;BME280;9226;47.858;9.594;2023-03-25T04:14:29;94858.88;;;7.90;77.01
18201;BME280;9226;47.858;9.594;2023-03-25T04:16:56;94842.69;;;7.83;77.51
18201;BME280;9226;47.858;9.594;2023-03-25T04:19:24;94838.50;;;7.81;76.81
18201;BME280;9226;47.858;9.594;2023-03-25T04:21:50;94845.22;;;7.62;77.83
18201;BME280;9226;47.858;9.594;2023-03-25T04:24:16;94844.16;;;7.65;77.57
18201;BME280;9226;47.858;9.594;2023-03-25T04:26:44;94835.88;;;7.58;77.87
18201;BME280;9226;47.858;9.594;2023-03-25T04:29:09;94837.81;;;7.45;78.23
18201;BME280;9226;47.858;9.594;2023-03-25T04:31:35;94833.97;;;7.49;77.67
18201;BME280;9226;47.858;9.594;2023-03-25T04:34:02;94810.34;;;7.36;77.41
18201;BME280;9226;47.858;9.594;2023-03-25T04:36:29;94801.00;;;7.20;77.62
18201;BME280;9226;47.858;9.594;2023-03-25T04:38:58;94822.22;;;7.19;78.64
18201;BME280;9226;47.858;9.594;2023-03-25T04:41:23;94833.63;;;7.31;78.38
18201;BME280;9226;47.858;9.594;2023-03-25T04:43:49;94846.19;;;7.27;79.06
18201;BME280;9226;47.858;9.594;2023-03-25T04:46:15;94849.06;;;7.13;79.95
18201;BME280;9226;47.858;9.594;2023-03-25T04:48:42;94846.53;;;7.00;80.53
18201;BME280;9226;47.858;9.594;2023-03-25T04:51:10;94844.94;;;6.86;81.01
18201;BME280;9226;47.858;9.594;2023-03-25T04:53:36;94841.84;;;6.92;80.55
18201;BME280;9226;47.858;9.594;2023-03-25T04:56:04;94849.75;;;6.81;81.22
18201;BME280;9226;47.858;9.594;2023-03-25T04:58:30;94860.41;;;6.79;81.58
18201;BME280;9226;47.858;9.594;2023-03-25T05:00:57;94875.16;;;6.82;80.92
18201;BME280;9226;47.858;9.594;2023-03-25T05:03:33;94871.19;;;6.76;80.77
18201;BME280;9226;47.858;9.594;2023-03-25T05:05:59;94870.53;;;6.61;80.93
18201;BME280;9226;47.858;9.594;2023-03-25T05:08:25;94859.22;;;6.48;81.14
18201;BME280;9226;47.858;9.594;2023-03-25T05:10:50;94872.88;;;6.53;81.52
18201;BME280;9226;47.858;9.594;2023-03-25T05:13:16;94862.31;;;6.42;81.40
18201;BME280;9226;47.858;9.594;2023-03-25T05:15:42;94871.53;;;6.36;81.47
18201;BME280;9226;47.858;9.594;2023-03-25T05:18:12;94884.59;;;6.38;81.55
18201;BME280;9226;47.858;9.594;2023-03-25T05:20:39;94869.28;;;6.43;81.32
18201;BME280;9226;47.858;9.594;2023-03-25T05:23:06;94866.41;;;6.46;81.45
18201;BME280;9226;47.858;9.594;2023-03-25T05:25:39;94879.22;;;6.39;81.67
18201;BME280;9226;47.858;9.594;2023-03-25T05:28:06;94882.91;;;6.37;80.98
18201;BME280;9226;47.858;9.594;2023-03-25T05:30:34;94892.22;;;6.29;81.50
18201;BME280;9226;47.858;9.594;2023-03-25T05:33:04;94891.13;;;6.32;81.57
18201;BME280;9226;47.858;9.594;2023-03-25T05:35:29;94891.13;;;6.32;81.38
18201;BME280;9226;47.858;9.594;2023-03-25T05:37:55;94897.59;;;6.28;81.50
18201;BME280;9226;47.858;9.594;2023-03-25T05:40:20;94900.84;;;6.31;81.57
18201;BME280;9226;47.858;9.594;2023-03-25T05:42:46;94903.44;;;6.20;81.92
18201;BME280;9226;47.858;9.594;2023-03-25T05:45:14;94910.03;;;6.26;81.75
18201;BME280;9226;47.858;9.594;2023-03-25T05:47:40;94923.34;;;6.36;81.58
18201;BME280;9226;47.858;9.594;2023-03-25T05:50:05;94922.03;;;6.30;81.73
18201;BME280;9226;47.858;9.594;2023-03-25T05:52:32;94919.78;;;6.37;81.85
18201;BME280;9226;47.858;9.594;2023-03-25T05:54:58;94916.53;;;6.57;81.16
18201;BME280;9226;47.858;9.594;2023-03-25T05:57:23;94913.03;;;6.32;82.04
18201;BME280;9226;47.858;9.594;2023-03-25T05:59:48;94918.84;;;6.38;81.67
18201;BME280;9226;47.858;9.594;2023-03-25T06:02:15;94919.66;;;6.38;81.87
18201;BME280;9226;47.858;9.594;2023-03-25T06:04:41;94915.19;;;6.27;82.14
18201;BME280;9226;47.858;9.594;2023-03-25T06:07:09;94922.38;;;6.25;82.04
18201;BME280;9226;47.858;9.594;2023-03-25T06:09:42;94916.88;;;6.28;82.10
18201;BME280;9226;47.858;9.594;2023-03-25T06:12:18;94919.00;;;6.23;82.76
18201;BME280;9226;47.858;9.594;2023-03-25T06:14:44;94921.53;;;6.25;82.68
18201;BME280;9226;47.858;9.594;2023-03-25T06:17:16;94916.06;;;6.15;83.18
18201;BME280;9226;47.858;9.594;2023-03-25T06:19:47;94904.81;;;6.13;83.15
18201;BME280;9226;47.858;9.594;2023-03-25T06:22:13;94915.00;;;6.18;83.42
18201;BME280;9226;47.858;9.594;2023-03-25T06:24:39;94914.78;;;5.96;84.07
18201;BME280;9226;47.858;9.594;2023-03-25T06:27:14;94922.44;;;6.00;84.43
18201;BME280;9226;47.858;9.594;2023-03-25T06:29:40;94912.97;;;5.97;84.78
18201;BME280;9226;47.858;9.594;2023-03-25T06:32:07;94929.78;;;5.94;84.31
18201;BME280;9226;47.858;9.594;2023-03-25T06:34:32;94930.56;;;5.96;84.64
18201;BME280;9226;47.858;9.594;2023-03-25T06:36:58;94930.25;;;6.01;84.50
18201;BME280;9226;47.858;9.594;2023-03-25T06:39:24;94940.22;;;6.09;84.08
18201;BME280;9226;47.858;9.594;2023-03-25T06:41:50;94941.19;;;6.08;84.08
18201;BME280;9226;47.858;9.594;2023-03-25T06:44:15;94944.72;;;6.20;84.39
18201;BME280;9226;47.858;9.594;2023-03-25T06:46:41;94949.94;;;6.32;83.73
18201;BME280;9226;47.858;9.594;2023-03-25T06:49:07;94946.97;;;6.37;83.85
18201;BME280;9226;47.858;9.594;2023-03-25T06:51:32;94951.91;;;6.42;83.78
18201;BME280;9226;47.858;9.594;2023-03-25T06:53:58;94954.47;;;6.55;83.83
18201;BME280;9226;47.858;9.594;2023-03-25T06:56:23;94952.22;;;6.50;83.80
18201;BME280;9226;47.858;9.594;2023-03-25T06:58:49;94958.53;;;6.72;83.22
18201;BME280;9226;47.858;9.594;2023-03-25T07:01:14;94952.75;;;6.66;82.92
18201;BME280;9226;47.858;9.594;2023-03-25T07:03:42;94953.19;;;6.60;83.70
18201;BME280;9226;47.858;9.594;2023-03-25T07:06:15;94950.84;;;6.68;83.62
18201;BME280;9226;47.858;9.594;2023-03-25T07:08:41;94951.84;;;6.79;83.43
18201;BME280;9226;47.858;9.594;2023-03-25T07:11:07;94947.78;;;6.86;82.87
18201;BME280;9226;47.858;9.594;2023-03-25T07:13:32;94946.13;;;6.85;82.43
18201;BME280;9226;47.858;9.594;2023-03-25T07:15:59;94949.00;;;6.82;83.03
18201;BME280;9226;47.858;9.594;2023-03-25T07:18:24;94950.72;;;6.70;82.92
18201;BME280;9226;47.858;9.594;2023-03-25T07:20:50;94942.84;;;6.81;83.03
18201;BME280;9226;47.858;9.594;2023-03-25T07:23:15;94948.88;;;6.83;82.54
18201;BME280;9226;47.858;9.594;2023-03-25T07:25:41;94942.28;;;6.89;82.41
18201;BME280;9226;47.858;9.594;2023-03-25T07:28:06;94940.97;;;6.83;82.01
18201;BME280;9226;47.858;9.594;2023-03-25T07:30:31;94940.66;;;6.99;82.13
18201;BME280;9226;47.858;9.594;2023-03-25T07:32:57;94937.59;;;7.17;81.97
18201;BME280;9226;47.858;9.594;2023-03-25T07:35:23;94943.94;;;7.25;81.84
18201;BME280;9226;47.858;9.594;2023-03-25T07:37:48;94930.13;;;7.11;81.89
18201;BME280;9226;47.858;9.594;2023-03-25T07:40:13;94939.53;;;7.37;81.74
18201;BME280;9226;47.858;9.594;2023-03-25T07:42:39;94934.75;;;7.42;81.13
18201;BME280;9226;47.858;9.594;2023-03-25T07:45:05;94925.38;;;7.38;81.00
18201;BME280;9226;47.858;9.594;2023-03-25T07:47:31;94921.31;;;7.34;80.57
18201;BME280;9226;47.858;9.594;2023-03-25T07:49:56;94930.78;;;7.37;80.18
18201;BME280;9226;47.858;9.594;2023-03-25T07:52:22;94926.84;;;7.54;80.18
18201;BME280;9226;47.858;9.594;2023-03-25T07:54:47;94927.31;;;7.59;80.09
18201;BME280;9226;47.858;9.594;2023-03-25T07:57:13;94913.88;;;7.62;79.53
18201;BME280;9226;47.858;9.594;2023-03-25T07:59:38;94930.06;;;7.46;78.22
18201;BME280;9226;47.858;9.594;2023-03-25T08:02:03;94918.44;;;7.71;78.55
18201;BME280;9226;47.858;9.594;2023-03-25T08:04:29;94920.84;;;7.63;77.86
18201;BME280;9226;47.858;9.594;2023-03-25T08:06:54;94915.78;;;7.60;78.13
18201;BME280;9226;47.858;9.594;2023-03-25T08:09:20;94913.16;;;7.71;77.87
18201;BME280;9226;47.858;9.594;2023-03-25T08:11:47;94918.69;;;7.68;77.29
18201;BME280;9226;47.858;9.594;2023-03-25T08:14:12;94914.00;;;7.72;77.66
18201;BME280;9226;47.858;9.594;2023-03-25T08:16:38;94917.34;;;7.96;76.75
18201;BME280;9226;47.858;9.594;2023-03-25T08:19:03;94914.09;;;8.04;76.58
18201;BME280;9226;47.858;9.594;2023-03-25T08:21:28;94911.44;;;8.15;76.08
18201;BME280;9226;47.858;9.594;2023-03-25T08:23:55;94913.53;;;8.44;76.88
18201;BME280;9226;47.858;9.594;2023-03-25T08:26:28;94912.00;;;8.74;76.51
18201;BME280;9226;47.858;9.594;2023-03-25T08:28:54;94910.09;;;9.18;73.79
18201;BME280;9226;47.858;9.594;2023-03-25T08:31:22;94900.56;;;9.58;70.55
18201;BME280;9226;47.858;9.594;2023-03-25T08:33:47;94906.06;;;10.07;70.35
18201;BME280;9226;47.858;9.594;2023-03-25T08:36:13;94897.00;;;10.50;69.63
18201;BME280;9226;47.858;9.594;2023-03-25T08:38:47;94894.19;;;11.30;65.58
18201;BME280;9226;47.858;9.594;2023-03-25T08:41:13;94892.00;;;12.10;64.83
18201;BME280;9226;47.858;9.594;2023-03-25T08:43:39;94884.31;;;12.71;61.27
18201;BME280;9226;47.858;9.594;2023-03-25T08:46:04;94888.78;;;13.42;60.00
18201;BME280;9226;47.858;9.594;2023-03-25T08:48:30;94892.78;;;13.99;59.54
18201;BME280;9226;47.858;9.594;2023-03-25T08:50:55;94888.38;;;13.81;55.99
18201;BME280;9226;47.858;9.594;2023-03-25T08:53:21;94887.13;;;13.41;55.20
18201;BME280;9226;47.858;9.594;2023-03-25T08:55:50;94888.28;;;13.65;57.05
18201;BME280;9226;47.858;9.594;2023-03-25T08:58:17;94884.44;;;13.23;58.11
18201;BME280;9226;47.858;9.594;2023-03-25T09:00:42;94872.78;;;12.62;57.92
18201;BME280;9226;47.858;9.594;2023-03-25T09:03:08;94892.69;;;12.30;59.64
18201;BME280;9226;47.858;9.594;2023-03-25T09:05:36;94893.69;;;12.01;61.26
18201;BME280;9226;47.858;9.594;2023-03-25T09:08:02;94882.94;;;11.55;62.47
18201;BME280;9226;47.858;9.594;2023-03-25T09:10:28;94873.94;;;11.66;64.37
18201;BME280;9226;47.858;9.594;2023-03-25T09:12:53;94888.06;;;11.76;63.03
18201;BME280;9226;47.858;9.594;2023-03-25T09:15:18;94881.16;;;11.84;64.19
18201;BME280;9226;47.858;9.594;2023-03-25T09:17:45;94879.69;;;12.09;61.88
18201;BME280;9226;47.858;9.594;2023-03-25T09:20:10;94875.91;;;12.02;59.60
18201;BME280;9226;47.858;9.594;2023-03-25T09:22:37;94886.25;;;12.33;60.17
18201;BME280;9226;47.858;9.594;2023-03-25T09:25:03;94895.34;;;12.58;58.89
18201;BME280;9226;47.858;9.594;2023-03-25T09:27:29;94879.53;;;12.92;59.35
18201;BME280;9226;47.858;9.594;2023-03-25T09:29:54;94882.34;;;13.09;58.09
18201;BME280;9226;47.858;9.594;2023-03-25T09:32:20;94881.19;;;13.11;57.56
18201;BME280;9226;47.858;9.594;2023-03-25T09:34:45;94899.13;;;13.45;56.90
18201;BME280;9226;47.858;9.594;2023-03-25T09:37:11;94879.88;;;13.15;57.53
18201;BME280;9226;47.858;9.594;2023-03-25T09:39:36;94878.06;;;12.98;58.64
18201;BME280;9226;47.858;9.594;2023-03-25T09:47:28;94906.28;;;12.37;60.78
18201;BME280;9226;47.858;9.594;2023-03-25T09:49:59;94906.28;;;12.55;61.52
18201;BME280;9226;47.858;9.594;2023-03-25T09:52:35;94906.56;;;12.06;62.15
18201;BME280;9226;47.858;9.594;2023-03-25T09:55:06;94901.47;;;12.12;62.66
18201;BME280;9226;47.858;9.594;2023-03-25T09:57:42;94887.34;;;11.74;63.78
18201;BME280;9226;47.858;9.594;2023-03-25T10:00:19;94889.50;;;11.61;63.55
18201;BME280;9226;47.858;9.594;2023-03-25T10:03:13;94886.75;;;11.33;65.29
18201;BME280;9226;47.858;9.594;2023-03-25T10:05:57;94878.09;;;11.31;66.37
18201;BME280;9226;47.858;9.594;2023-03-25T10:09:09;94897.78;;;11.48;65.83
18201;BME280;9226;47.858;9.594;2023-03-25T10:17:01;94909.41;;;11.37;64.78
18201;BME280;9226;47.858;9.594;2023-03-25T10:22:05;94909.00;;;10.64;67.41
18201;BME280;9226;47.858;9.594;2023-03-25T10:27:16;94911.06;;;10.00;69.83
18201;BME280;9226;47.858;9.594;2023-03-25T10:30:08;94897.63;;;9.82;71.24
18201;BME280;9226;47.858;9.594;2023-03-25T10:32:45;94877.75;;;9.67;71.70
18201;BME280;9226;47.858;9.594;2023-03-25T10:35:17;94864.09;;;9.62;70.79
18201;BME280;9226;47.858;9.594;2023-03-25T10:37:46;94874.94;;;9.58;71.04
18201;BME280;9226;47.858;9.594;2023-03-25T10:43:26;94894.97;;;9.51;71.97
18201;BME280;9226;47.858;9.594;2023-03-25T10:45:59;94881.78;;;9.61;71.97
18201;BME280;9226;47.858;9.594;2023-03-25T10:48:30;94873.31;;;9.67;72.69
18201;BME280;9226;47.858;9.594;2023-03-25T10:53:28;94884.41;;;9.61;72.52
18201;BME280;9226;47.858;9.594;2023-03-25T10:56:06;94900.66;;;9.68;72.41
18201;BME280;9226;47.858;9.594;2023-03-25T10:58:36;94901.69;;;9.86;71.32
18201;BME280;9226;47.858;9.594;2023-03-25T11:01:17;94898.50;;;9.92;72.03
18201;BME280;9226;47.858;9.594;2023-03-25T11:03:45;94904.03;;;10.20;71.04
18201;BME280;9226;47.858;9.594;2023-03-25T11:06:23;94903.28;;;10.08;70.50
18201;BME280;9226;47.858;9.594;2023-03-25T11:09:11;94906.09;;;10.17;70.63
18201;BME280;9226;47.858;9.594;2023-03-25T11:11:38;94915.31;;;10.12;70.28
18201;BME280;9226;47.858;9.594;2023-03-25T11:14:04;94900.78;;;10.07;69.76
18201;BME280;9226;47.858;9.594;2023-03-25T11:16:35;94896.81;;;9.91;70.96
18201;BME280;9226;47.858;9.594;2023-03-25T11:19:04;94894.25;;;9.80;69.72
18201;BME280;9226;47.858;9.594;2023-03-25T11:21:32;94903.13;;;9.69;69.82
18201;BME280;9226;47.858;9.594;2023-03-25T11:23:59;94897.28;;;9.66;70.19
18201;BME280;9226;47.858;9.594;2023-03-25T11:26:34;94900.06;;;9.64;69.81
18201;BME280;9226;47.858;9.594;2023-03-25T11:29:06;94909.91;;;9.31;72.23
18201;BME280;9226;47.858;9.594;2023-03-25T11:31:35;94906.34;;;9.42;73.02
18201;BME280;9226;47.858;9.594;2023-03-25T11:39:28;94909.41;;;10.40;72.74
18201;BME280;9226;47.858;9.594;2023-03-25T11:41:53;94908.75;;;10.96;72.27
18201;BME280;9226;47.858;9.594;2023-03-25T11:44:25;94897.56;;;11.69;70.86
18201;BME280;9226;47.858;9.594;2023-03-25T11:46:59;94903.47;;;12.10;67.48
18201;BME280;9226;47.858;9.594;2023-03-25T11:49:26;94897.56;;;12.80;67.31
18201;BME280;9226;47.858;9.594;2023-03-25T11:51:59;94896.72;;;13.34;64.66
18201;BME280;9226;47.858;9.594;2023-03-25T11:54:26;94893.28;;;13.68;61.20
18201;BME280;9226;47.858;9.594;2023-03-25T11:56:53;94906.75;;;14.27;62.11
18201;BME280;9226;47.858;9.594;2023-03-25T11:59:27;94900.59;;;14.69;60.56
18201;BME280;9226;47.858;9.594;2023-03-25T12:07:21;94896.06;;;14.27;58.66
18201;BME280;9226;47.858;9.594;2023-03-25T12:09:56;94876.75;;;13.90;57.22
18201;BME280;9226;47.858;9.594;2023-03-25T12:12:52;94885.44;;;14.01;57.88
18201;BME280;9226;47.858;9.594;2023-03-25T12:15:41;94875.75;;;14.34;58.21
18201;BME280;9226;47.858;9.594;2023-03-25T12:26:15;94877.56;;;14.25;57.05
18201;BME280;9226;47.858;9.594;2023-03-25T12:34:22;94878.09;;;13.94;55.42
18201;BME280;9226;47.858;9.594;2023-03-25T12:37:04;94882.50;;;14.12;55.39
18201;BME280;9226;47.858;9.594;2023-03-25T12:42:55;94868.47;;;14.02;55.21
18201;BME280;9226;47.858;9.594;2023-03-25T12:45:47;94869.41;;;13.92;55.27
18201;BME280;9226;47.858;9.594;2023-03-25T12:54:42;94875.91;;;13.37;55.30
18201;BME280;9226;47.858;9.594;2023-03-25T12:57:23;94875.84;;;13.47;56.05
18201;BME280;9226;47.858;9.594;2023-03-25T13:08:58;94865.22;;;13.55;55.39
18201;BME280;9226;47.858;9.594;2023-03-25T13:11:36;94863.59;;;13.36;54.69
18201;BME280;9226;47.858;9.594;2023-03-25T13:14:26;94865.13;;;13.65;55.82
18201;BME280;9226;47.858;9.594;2023-03-25T13:16:54;94866.53;;;13.51;56.23
18201;BME280;9226;47.858;9.594;2023-03-25T13:19:23;94872.53;;;13.53;57.93
18201;BME280;9226;47.858;9.594;2023-03-25T13:21:54;94862.56;;;13.55;58.19
18201;BME280;9226;47.858;9.594;2023-03-25T13:24:34;94870.81;;;13.44;57.39
18201;BME280;9226;47.858;9.594;2023-03-25T13:27:03;94868.91;;;13.18;57.76
18201;BME280;9226;47.858;9.594;2023-03-25T13:29:36;94864.84;;;12.88;57.56
18201;BME280;9226;47.858;9.594;2023-03-25T13:32:41;94861.91;;;12.73;58.88
18201;BME280;9226;47.858;9.594;2023-03-25T13:35:19;94852.31;;;12.98;58.25
18201;BME280;9226;47.858;9.594;2023-03-25T13:37:57;94840.84;;;13.06;57.76
18201;BME280;9226;47.858;9.594;2023-03-25T13:40:29;94844.53;;;13.05;57.69
18201;BME280;9226;47.858;9.594;2023-03-25T13:45:34;94840.84;;;12.80;58.74
18201;BME280;9226;47.858;9.594;2023-03-25T13:48:16;94848.97;;;12.78;60.02
18201;BME280;9226;47.858;9.594;2023-03-25T13:50:43;94851.69;;;12.87;59.17
18201;BME280;9226;47.858;9.594;2023-03-25T13:53:17;94844.63;;;12.77;60.91
18201;BME280;9226;47.858;9.594;2023-03-25T13:59:12;94849.88;;;12.51;62.79
18201;BME280;9226;47.858;9.594;2023-03-25T14:01:58;94847.16;;;12.61;62.85
18201;BME280;9226;47.858;9.594;2023-03-25T14:18:26;94874.94;;;12.03;66.42
18201;BME280;9226;47.858;9.594;2023-03-25T14:23:40;94862.75;;;11.72;69.37
18201;BME280;9226;47.858;9.594;2023-03-25T14:26:07;94860.72;;;11.84;67.93
18201;BME280;9226;47.858;9.594;2023-03-25T14:28:39;94856.56;;;11.82;68.71
18201;BME280;9226;47.858;9.594;2023-03-25T14:31:08;94855.06;;;11.69;69.96
18201;BME280;9226;47.858;9.594;2023-03-25T14:34:11;94852.69;;;11.66;70.10
18201;BME280;9226;47.858;9.594;2023-03-25T14:39:08;94853.59;;;11.85;68.56
18201;BME280;9226;47.858;9.594;2023-03-25T14:42:22;94858.34;;;11.81;68.98
18201;BME280;9226;47.858;9.594;2023-03-25T14:44:49;94862.38;;;11.95;68.02
18201;BME280;9226;47.858;9.594;2023-03-25T14:49:53;94861.50;;;12.04;69.94
18201;BME280;9226;47.858;9.594;2023-03-25T14:54:54;94864.53;;;12.19;68.87
18201;BME280;9226;47.858;9.594;2023-03-25T14:57:25;94860.59;;;12.41;68.20
18201;BME280;9226;47.858;9.594;2023-03-25T15:00:02;94855.66;;;12.46;67.22
18201;BME280;9226;47.858;9.594;2023-03-25T15:02:39;94861.28;;;12.43;66.94
18201;BME280;9226;47.858;9.594;2023-03-25T15:10:24;94864.63;;;11.90;65.75
18201;BME280;9226;47.858;9.594;2023-03-25T15:12:55;94847.91;;;12.07;66.29
18201;BME280;9226;47.858;9.594;2023-03-25T15:17:54;94843.63;;;12.24;65.84
18201;BME280;9226;47.858;9.594;2023-03-25T15:25:53;94856.06;;;12.24;65.50
18201;BME280;9226;47.858;9.594;2023-03-25T15:39:26;94875.91;;;12.11;65.56
18201;BME280;9226;47.858;9.594;2023-03-25T15:50:12;94859.88;;;11.84;65.60
18201;BME280;9226;47.858;9.594;2023-03-25T15:52:57;94863.78;;;11.99;65.07
18201;BME280;9226;47.858;9.594;2023-03-25T15:55:32;94865.03;;;11.95;65.24
18201;BME280;9226;47.858;9.594;2023-03-25T15:58:04;94869.78;;;12.01;65.81
18201;BME280;9226;47.858;9.594;2023-03-25T16:00:35;94870.16;;;12.06;66.26
18201;BME280;9226;47.858;9.594;2023-03-25T16:05:29;94864.16;;;12.32;63.42
18201;BME280;9226;47.858;9.594;2023-03-25T16:07:57;94854.34;;;12.33;63.28
18201;BME280;9226;47.858;9.594;2023-03-25T16:10:32;94866.38;;;12.37;62.50
18201;BME280;9226;47.858;9.594;2023-03-25T16:13:11;94862.59;;;12.11;61.32
18201;BME280;9226;47.858;9.594;2023-03-25T16:15:37;94868.22;;;12.08;61.26